createdAt,value
2023-01-12T00:01:31.055Z,4.30
2023-01-12T00:03:57.883Z,4.30
2023-01-12T00:06:24.814Z,4.30
2023-01-12T00:08:52.140Z,4.40
2023-01-12T00:11:19.110Z,4.30
2023-01-12T00:13:45.991Z,4.40
2023-01-12T00:16:37.710Z,4.40
2023-01-12T00:19:12.329Z,4.40
2023-01-12T00:21:59.047Z,4.40
2023-01-12T00:24:28.197Z,4.40
2023-01-12T00:26:55.465Z,4.30
2023-01-12T00:29:22.592Z,4.30
2023-01-12T00:31:49.427Z,4.20
2023-01-12T00:34:16.261Z,4.20
2023-01-12T00:36:43.328Z,4.30
2023-01-12T00:39:10.091Z,4.30
2023-01-12T00:41:56.208Z,4.30
2023-01-12T00:44:41.917Z,4.30
2023-01-12T00:47:09.024Z,4.30
2023-01-12T00:49:36.332Z,4.30
2023-01-12T00:52:04.117Z,4.40
2023-01-12T00:54:30.848Z,4.40
2023-01-12T00:56:57.683Z,4.40
2023-01-12T00:59:24.460Z,4.40
2023-01-12T01:01:51.303Z,4.40
2023-01-12T01:04:18.168Z,4.40
2023-01-12T01:06:44.902Z,4.40
2023-01-12T01:09:11.706Z,4.40
2023-01-12T01:11:38.469Z,4.40
2023-01-12T01:14:05.280Z,4.40
2023-01-12T01:16:32.170Z,4.40
2023-01-12T01:18:59.001Z,4.40
2023-01-12T01:21:25.909Z,4.40
2023-01-12T01:23:52.984Z,4.40
2023-01-12T01:26:21.729Z,4.40
2023-01-12T01:28:48.710Z,4.40
2023-01-12T01:31:22.924Z,4.40
2023-01-12T01:33:49.921Z,4.40
2023-01-12T01:36:17.174Z,4.40
2023-01-12T01:38:44.902Z,4.30
2023-01-12T01:41:31.156Z,4.40
2023-01-12T01:44:06.397Z,4.40
2023-01-12T01:46:47.976Z,4.40
2023-01-12T01:49:32.241Z,4.40
2023-01-12T01:52:11.441Z,4.30
2023-01-12T01:54:43.806Z,4.40
2023-01-12T01:57:10.557Z,4.40
2023-01-12T01:59:37.342Z,4.40
2023-01-12T02:02:04.109Z,4.40
2023-01-12T02:04:30.897Z,4.40
2023-01-12T02:06:57.715Z,4.40
2023-01-12T02:09:28.300Z,4.30
2023-01-12T02:12:14.000Z,4.30
2023-01-12T02:15:00.053Z,4.40
2023-01-12T02:18:01.342Z,4.40
2023-01-12T02:20:48.431Z,4.40
2023-01-12T02:23:33.787Z,4.40
2023-01-12T02:26:12.682Z,4.40
2023-01-12T02:29:00.150Z,4.40
2023-01-12T02:31:38.349Z,4.40
2023-01-12T02:34:09.344Z,4.40
2023-01-12T02:36:58.991Z,4.30
2023-01-12T02:39:50.498Z,4.40
2023-01-12T02:42:41.312Z,4.40
2023-01-12T02:45:28.676Z,4.40
2023-01-12T02:48:01.021Z,4.40
2023-01-12T02:50:41.871Z,4.40
2023-01-12T02:53:12.863Z,4.40
2023-01-12T02:55:39.605Z,4.40
2023-01-12T02:58:06.659Z,4.40
2023-01-12T03:00:35.249Z,4.30
2023-01-12T03:03:02.189Z,4.30
2023-01-12T03:05:28.955Z,4.30
2023-01-12T03:08:00.093Z,4.30
2023-01-12T03:10:26.871Z,4.40
2023-01-12T03:12:55.066Z,4.40
2023-01-12T03:15:21.892Z,4.40
2023-01-12T03:18:15.355Z,4.40
2023-01-12T03:20:51.108Z,4.40
2023-01-12T03:23:24.271Z,4.40
2023-01-12T03:25:52.081Z,4.40
2023-01-12T03:28:19.627Z,4.50
2023-01-12T03:30:55.133Z,4.50
2023-01-12T03:33:21.868Z,4.50
2023-01-12T03:36:08.847Z,4.50
2023-01-12T03:39:11.405Z,4.50
2023-01-12T03:42:01.016Z,4.50
2023-01-12T03:44:59.386Z,4.50
2023-01-12T03:47:28.927Z,4.50
2023-01-12T03:50:01.425Z,4.40
2023-01-12T03:52:28.163Z,4.40
2023-01-12T03:54:56.802Z,4.40
2023-01-12T03:57:23.584Z,4.30
2023-01-12T03:59:50.353Z,4.40
2023-01-12T04:02:17.124Z,4.40
2023-01-12T04:04:43.890Z,4.40
2023-01-12T04:07:10.668Z,4.40
2023-01-12T04:09:37.681Z,4.50
2023-01-12T04:12:10.634Z,4.50
2023-01-12T04:14:38.491Z,4.40
2023-01-12T04:17:05.706Z,4.40
2023-01-12T04:19:32.421Z,4.40
2023-01-12T04:22:17.658Z,4.30
2023-01-12T04:24:44.334Z,4.30
2023-01-12T04:27:11.111Z,4.30
2023-01-12T04:29:37.870Z,4.20
2023-01-12T04:32:05.155Z,4.30
2023-01-12T04:34:31.847Z,4.30
2023-01-12T04:36:58.687Z,4.30
2023-01-12T04:39:25.506Z,4.30
2023-01-12T04:41:52.297Z,4.30
2023-01-12T04:44:19.148Z,4.30
2023-01-12T04:46:45.880Z,4.30
2023-01-12T04:49:12.550Z,4.30
2023-01-12T04:51:39.319Z,4.30
2023-01-12T04:54:06.148Z,4.30
2023-01-12T04:56:39.152Z,4.30
2023-01-12T04:59:07.422Z,4.30
2023-01-12T05:01:34.325Z,4.20
2023-01-12T05:04:01.158Z,4.30
2023-01-12T05:06:28.433Z,4.20
2023-01-12T05:09:13.621Z,4.20
2023-01-12T05:11:40.376Z,4.20
2023-01-12T05:14:07.182Z,4.20
2023-01-12T05:16:34.002Z,4.20
2023-01-12T05:19:00.880Z,4.20
2023-01-12T05:21:27.617Z,4.20
2023-01-12T05:23:54.441Z,4.30
2023-01-12T05:26:21.279Z,4.30
2023-01-12T05:28:49.838Z,4.30
2023-01-12T05:31:16.678Z,4.30
2023-01-12T05:33:43.567Z,4.30
2023-01-12T05:36:11.850Z,4.30
2023-01-12T05:38:38.534Z,4.30
2023-01-12T05:41:07.218Z,4.30
2023-01-12T05:43:52.260Z,4.30
2023-01-12T05:46:24.586Z,4.30
2023-01-12T05:48:52.036Z,4.30
2023-01-12T05:51:19.337Z,4.30
2023-01-12T05:53:46.217Z,4.30
2023-01-12T05:56:25.636Z,4.30
2023-01-12T05:58:53.532Z,4.40
2023-01-12T06:01:20.781Z,4.40
2023-01-12T06:03:55.233Z,4.40
2023-01-12T06:06:22.804Z,4.40
2023-01-12T06:08:52.172Z,4.30
2023-01-12T06:11:38.024Z,4.30
2023-01-12T06:14:04.852Z,4.30
2023-01-12T06:16:31.642Z,4.30
2023-01-12T06:18:58.472Z,4.30
2023-01-12T06:21:25.917Z,4.40
2023-01-12T06:23:52.746Z,4.30
2023-01-12T06:26:19.509Z,4.40
2023-01-12T06:28:46.356Z,4.30
2023-01-12T06:31:14.061Z,4.30
2023-01-12T06:33:42.135Z,4.30
2023-01-12T06:36:09.384Z,4.20
2023-01-12T06:38:37.341Z,4.20
2023-01-12T06:41:08.991Z,4.30
2023-01-12T06:43:35.754Z,4.30
2023-01-12T06:46:02.569Z,4.40
2023-01-12T06:48:38.664Z,4.40
2023-01-12T06:51:06.371Z,4.40
2023-01-12T06:53:33.165Z,4.30
2023-01-12T06:55:59.908Z,4.30
2023-01-12T06:58:26.738Z,4.30
2023-01-12T07:00:53.480Z,4.40
2023-01-12T07:03:20.435Z,4.40
2023-01-12T07:05:47.356Z,4.40
2023-01-12T07:08:19.106Z,4.40
2023-01-12T07:10:46.514Z,4.40
2023-01-12T07:13:13.285Z,4.40
2023-01-12T07:15:40.081Z,4.40
2023-01-12T07:18:06.914Z,4.40
2023-01-12T07:20:33.805Z,4.30
2023-01-12T07:23:00.651Z,4.30
2023-01-12T07:25:27.425Z,4.30
2023-01-12T07:27:55.503Z,4.40
2023-01-12T07:30:22.608Z,4.30
2023-01-12T07:32:49.658Z,4.40
2023-01-12T07:35:16.922Z,4.40
2023-01-12T07:37:50.823Z,4.40
2023-01-12T07:40:17.893Z,4.40
2023-01-12T07:42:44.858Z,4.40
2023-01-12T07:45:11.759Z,4.40
2023-01-12T07:47:38.631Z,4.40
2023-01-12T07:50:05.794Z,4.40
2023-01-12T07:52:32.573Z,4.40
2023-01-12T07:54:59.492Z,4.40
2023-01-12T07:57:26.314Z,4.40
2023-01-12T07:59:53.149Z,4.40
2023-01-12T08:02:20.027Z,4.50
2023-01-12T08:04:46.898Z,4.50
2023-01-12T08:07:15.240Z,4.50
2023-01-12T08:09:42.149Z,4.50
2023-01-12T08:12:08.966Z,4.50
2023-01-12T08:14:37.484Z,4.50
2023-01-12T08:17:05.990Z,4.50
2023-01-12T08:19:38.711Z,4.50
2023-01-12T08:22:08.149Z,4.50
2023-01-12T08:24:36.735Z,4.50
2023-01-12T08:27:04.882Z,4.60
2023-01-12T08:29:44.162Z,4.60
2023-01-12T08:32:11.341Z,4.60
2023-01-12T08:34:41.254Z,4.60
2023-01-12T08:37:09.460Z,4.60
2023-01-12T08:39:36.446Z,4.60
2023-01-12T08:42:03.612Z,4.60
2023-01-12T08:44:36.382Z,4.60
2023-01-12T08:47:04.516Z,4.60
2023-01-12T08:49:31.651Z,4.70
2023-01-12T08:51:58.410Z,4.70
2023-01-12T08:54:25.439Z,4.70
2023-01-12T08:56:53.836Z,4.60
2023-01-12T08:59:20.720Z,4.70
2023-01-12T09:01:47.830Z,4.70
2023-01-12T09:04:14.834Z,4.70
2023-01-12T09:06:42.975Z,4.70
2023-01-12T09:09:13.914Z,4.70
2023-01-12T09:11:41.656Z,4.70
2023-01-12T09:14:08.688Z,4.80
2023-01-12T09:16:35.559Z,4.90
2023-01-12T09:19:02.384Z,4.90
2023-01-12T09:21:29.637Z,4.90
2023-01-12T09:23:56.471Z,5.00
2023-01-12T09:26:26.059Z,4.90
2023-01-12T09:28:52.822Z,5.00
2023-01-12T09:31:21.422Z,5.00
2023-01-12T09:33:48.229Z,4.90
2023-01-12T09:36:19.400Z,5.10
2023-01-12T09:38:46.463Z,4.90
2023-01-12T09:41:59.064Z,5.00
2023-01-12T09:44:48.809Z,4.90
2023-01-12T09:47:30.864Z,4.90
2023-01-12T09:50:24.863Z,4.90
2023-01-12T09:53:03.133Z,4.90
2023-01-12T09:55:49.291Z,5.00
2023-01-12T09:58:37.197Z,5.00
2023-01-12T10:01:28.228Z,5.10
2023-01-12T10:03:55.767Z,5.10
2023-01-12T10:06:22.474Z,5.10
2023-01-12T10:09:10.293Z,5.20
2023-01-12T10:11:50.867Z,5.10
2023-01-12T10:14:34.496Z,5.10
2023-01-12T10:17:27.730Z,5.20
2023-01-12T10:20:13.103Z,5.20
2023-01-12T10:22:53.716Z,5.20
2023-01-12T10:25:55.819Z,5.20
2023-01-12T10:28:33.291Z,5.20
2023-01-12T10:31:00.476Z,5.20
2023-01-12T10:33:29.073Z,5.10
2023-01-12T10:36:04.948Z,5.20
2023-01-12T10:38:33.876Z,5.20
2023-01-12T10:41:04.591Z,5.10
2023-01-12T10:43:34.233Z,5.10
2023-01-12T10:46:17.691Z,5.10
2023-01-12T10:48:48.661Z,5.10
2023-01-12T10:51:32.662Z,5.20
2023-01-12T10:54:09.535Z,5.20
2023-01-12T10:57:02.732Z,5.30
2023-01-12T10:59:33.555Z,5.30
2023-01-12T11:02:11.579Z,5.30
2023-01-12T11:04:54.246Z,5.40
2023-01-12T11:07:29.022Z,5.40
2023-01-12T11:10:22.564Z,5.50
2023-01-12T11:13:00.177Z,5.50
2023-01-12T11:15:27.972Z,5.50
2023-01-12T11:18:30.870Z,5.50
2023-01-12T11:21:02.003Z,5.50
2023-01-12T11:24:06.278Z,5.50
2023-01-12T11:27:09.788Z,5.60
2023-01-12T11:29:44.055Z,5.60
2023-01-12T11:32:22.371Z,5.60
2023-01-12T11:34:58.010Z,5.60
2023-01-12T11:37:24.858Z,5.60
2023-01-12T11:39:58.243Z,5.60
2023-01-12T11:42:44.280Z,5.60
2023-01-12T11:45:26.029Z,5.60
2023-01-12T11:47:55.409Z,5.60
2023-01-12T11:50:28.524Z,5.70
2023-01-12T11:52:55.931Z,5.60
2023-01-12T11:55:45.841Z,5.70
2023-01-12T11:58:35.837Z,5.70
2023-01-12T12:01:05.768Z,5.60
2023-01-12T12:03:47.532Z,5.60
2023-01-12T12:06:44.721Z,5.60
2023-01-12T12:09:24.076Z,5.70
2023-01-12T12:12:03.328Z,5.70
2023-01-12T12:14:37.934Z,5.70
2023-01-12T12:17:10.510Z,5.70
2023-01-12T12:19:45.501Z,5.70
2023-01-12T12:22:30.562Z,5.60
2023-01-12T12:25:00.129Z,5.60
2023-01-12T12:27:36.191Z,5.60
2023-01-12T12:30:20.897Z,5.60
2023-01-12T12:33:15.107Z,5.60
2023-01-12T12:35:57.927Z,5.70
2023-01-12T12:39:12.590Z,5.70
2023-01-12T12:42:29.362Z,5.70
2023-01-12T12:45:16.696Z,5.60
2023-01-12T12:47:52.829Z,5.60
2023-01-12T12:50:31.039Z,5.60
2023-01-12T12:53:30.600Z,5.70
2023-01-12T12:56:03.619Z,5.70
2023-01-12T12:58:41.176Z,5.70
2023-01-12T13:01:20.314Z,5.70
2023-01-12T13:03:53.435Z,5.70
2023-01-12T13:06:31.011Z,5.70
2023-01-12T13:09:16.690Z,5.80
2023-01-12T13:11:59.206Z,5.80
2023-01-12T13:14:38.958Z,5.90
2023-01-12T13:17:23.631Z,5.90
2023-01-12T13:20:08.553Z,5.90
2023-01-12T13:22:40.306Z,5.90
2023-01-12T13:25:15.880Z,5.90
2023-01-12T13:27:48.217Z,6.00
2023-01-12T13:30:30.059Z,6.00
2023-01-12T13:33:14.920Z,6.00
2023-01-12T13:35:44.547Z,6.00
2023-01-12T13:38:33.149Z,6.00
2023-01-12T13:41:45.200Z,6.00
2023-01-12T13:44:34.716Z,6.10
2023-01-12T13:47:10.298Z,6.10
2023-01-12T13:49:44.626Z,6.00
2023-01-12T13:52:32.152Z,6.10
2023-01-12T13:54:59.077Z,6.10
2023-01-12T13:57:27.566Z,6.10
2023-01-12T14:00:11.619Z,6.10
2023-01-12T14:02:38.548Z,6.10
2023-01-12T14:05:18.600Z,6.20
2023-01-12T14:07:52.968Z,6.20
2023-01-12T14:10:52.962Z,6.10
2023-01-12T14:13:28.540Z,6.10
2023-01-12T14:16:20.409Z,6.20
2023-01-12T14:18:48.551Z,6.10
2023-01-12T14:21:37.199Z,6.20
2023-01-12T14:24:23.337Z,6.20
2023-01-12T14:26:51.919Z,6.10
2023-01-12T14:29:18.697Z,6.10
2023-01-12T14:31:49.858Z,6.10
2023-01-12T14:34:32.838Z,6.10
2023-01-12T14:36:59.942Z,6.10
2023-01-12T14:39:27.832Z,6.00
2023-01-12T14:42:14.038Z,6.00
2023-01-12T14:45:08.201Z,6.10
2023-01-12T14:47:35.233Z,6.00
2023-01-12T14:50:10.787Z,6.00
2023-01-12T14:52:37.521Z,6.00
2023-01-12T14:55:26.459Z,5.90
2023-01-12T14:57:57.800Z,5.80
2023-01-12T15:00:26.096Z,5.80
2023-01-12T15:02:54.482Z,5.80
2023-01-12T15:05:28.118Z,5.60
2023-01-12T15:08:26.972Z,5.60
2023-01-12T15:11:28.464Z,5.60
2023-01-12T15:13:58.962Z,5.60
2023-01-12T15:16:44.490Z,5.50
2023-01-12T15:19:29.750Z,5.60
2023-01-12T15:22:16.066Z,5.60
2023-01-12T15:25:01.623Z,5.60
2023-01-12T15:27:28.522Z,5.50
2023-01-12T15:29:55.566Z,5.50
2023-01-12T15:32:46.916Z,5.40
2023-01-12T15:35:21.297Z,5.40
2023-01-12T15:37:48.150Z,5.50
2023-01-12T15:40:15.171Z,5.40
2023-01-12T15:42:42.247Z,5.40
2023-01-12T15:45:18.173Z,5.40
2023-01-12T15:47:47.550Z,5.30
2023-01-12T15:50:17.357Z,5.30
2023-01-12T15:52:44.222Z,5.30
2023-01-12T15:55:18.652Z,5.30
2023-01-12T15:57:45.492Z,5.20
2023-01-12T16:00:16.718Z,5.30
2023-01-12T16:02:45.507Z,5.20
2023-01-12T16:05:13.037Z,5.20
2023-01-12T16:07:39.843Z,5.10
2023-01-12T16:10:10.097Z,5.10
2023-01-12T16:12:37.162Z,5.20
2023-01-12T16:15:10.005Z,5.20
2023-01-12T16:17:36.714Z,5.20
2023-01-12T16:20:04.076Z,5.20
2023-01-12T16:22:33.381Z,5.20
2023-01-12T16:25:02.253Z,5.20
2023-01-12T16:27:29.019Z,5.10
2023-01-12T16:29:55.772Z,5.10
2023-01-12T16:32:24.098Z,5.10
2023-01-12T16:34:50.982Z,5.10
2023-01-12T16:37:18.784Z,5.10
2023-01-12T16:39:45.605Z,5.10
2023-01-12T16:42:12.583Z,5.10
2023-01-12T16:44:40.215Z,5.00
2023-01-12T16:47:15.310Z,5.00
2023-01-12T16:49:42.258Z,5.00
2023-01-12T16:52:09.884Z,5.00
2023-01-12T16:54:41.765Z,5.00
2023-01-12T16:57:09.895Z,5.00
2023-01-12T16:59:36.726Z,5.10
2023-01-12T17:02:07.928Z,5.00
2023-01-12T17:04:35.946Z,5.00
2023-01-12T17:07:03.539Z,5.00
2023-01-12T17:09:30.590Z,4.90
2023-01-12T17:11:58.373Z,5.00
2023-01-12T17:14:26.968Z,4.90
2023-01-12T17:16:56.266Z,4.90
2023-01-12T17:19:24.075Z,4.90
2023-01-12T17:21:51.079Z,4.90
2023-01-12T17:24:20.172Z,4.90
2023-01-12T17:26:49.583Z,4.90
2023-01-12T17:29:16.357Z,4.90
2023-01-12T17:31:43.452Z,4.90
2023-01-12T17:34:11.929Z,4.90
2023-01-12T17:36:38.935Z,4.90
2023-01-12T17:39:05.775Z,4.90
2023-01-12T17:41:51.013Z,4.90
2023-01-12T17:44:17.957Z,4.80
2023-01-12T17:46:44.783Z,4.90
2023-01-12T17:49:11.792Z,4.80
2023-01-12T17:51:38.821Z,4.80
2023-01-12T17:54:06.497Z,4.80
2023-01-12T17:56:34.432Z,4.80
2023-01-12T17:59:01.465Z,4.80
2023-01-12T18:01:29.779Z,4.80
2023-01-12T18:03:57.439Z,4.80
2023-01-12T18:06:27.419Z,4.80
2023-01-12T18:08:56.431Z,4.80
2023-01-12T18:11:23.695Z,4.80
2023-01-12T18:13:50.510Z,4.80
2023-01-12T18:16:17.354Z,4.80
2023-01-12T18:18:44.370Z,4.70
2023-01-12T18:21:13.773Z,4.70
2023-01-12T18:23:41.718Z,4.70
2023-01-12T18:26:10.219Z,4.70
2023-01-12T18:28:36.976Z,4.70
2023-01-12T18:31:10.987Z,4.70
2023-01-12T18:33:37.977Z,4.70
2023-01-12T18:36:12.067Z,4.70
2023-01-12T18:38:41.790Z,4.70
2023-01-12T18:41:27.061Z,4.60
2023-01-12T18:43:53.772Z,4.70
2023-01-12T18:46:20.582Z,4.70
2023-01-12T18:48:47.777Z,4.60
2023-01-12T18:51:33.403Z,4.60
2023-01-12T18:54:00.422Z,4.60
2023-01-12T18:56:27.171Z,4.60
2023-01-12T18:58:53.986Z,4.60
2023-01-12T19:01:22.828Z,4.60
2023-01-12T19:03:49.985Z,4.60
2023-01-12T19:06:19.254Z,4.60
2023-01-12T19:09:04.576Z,4.60
2023-01-12T19:11:31.543Z,4.60
2023-01-12T19:14:16.830Z,4.60
2023-01-12T19:17:01.961Z,4.50
2023-01-12T19:19:32.071Z,4.60
2023-01-12T19:22:17.306Z,4.50
2023-01-12T19:25:02.617Z,4.50
2023-01-12T19:27:48.098Z,4.50
2023-01-12T19:30:15.168Z,4.50
2023-01-12T19:32:41.932Z,4.50
2023-01-12T19:35:11.407Z,4.50
2023-01-12T19:37:39.470Z,4.50
2023-01-12T19:40:17.530Z,4.40
2023-01-12T19:43:02.700Z,4.40
2023-01-12T19:45:29.687Z,4.50
2023-01-12T19:47:56.579Z,4.50
2023-01-12T19:50:23.400Z,4.40
2023-01-12T19:52:50.109Z,4.40
2023-01-12T19:55:16.902Z,4.40
2023-01-12T19:57:43.718Z,4.40
2023-01-12T20:00:14.108Z,4.40
2023-01-12T20:02:42.654Z,4.40
2023-01-12T20:05:13.179Z,4.40
2023-01-12T20:07:40.256Z,4.40
2023-01-12T20:10:07.298Z,4.40
2023-01-12T20:12:34.107Z,4.40
2023-01-12T20:15:00.937Z,4.40
2023-01-12T20:17:27.768Z,4.40
2023-01-12T20:19:54.711Z,4.40
2023-01-12T20:22:21.488Z,4.40
2023-01-12T20:24:48.668Z,4.40
2023-01-12T20:27:15.518Z,4.40
2023-01-12T20:29:42.292Z,4.40
2023-01-12T20:32:09.035Z,4.40
2023-01-12T20:34:35.883Z,4.40
2023-01-12T20:37:02.613Z,4.40
2023-01-12T20:39:30.790Z,4.40
2023-01-12T20:41:57.784Z,4.40
2023-01-12T20:44:24.462Z,4.40
2023-01-12T20:46:51.408Z,4.40
2023-01-12T20:49:18.190Z,4.40
2023-01-12T20:51:45.149Z,4.40
2023-01-12T20:54:11.931Z,4.40
2023-01-12T20:56:38.763Z,4.40
2023-01-12T20:59:05.856Z,4.40
2023-01-12T21:01:33.025Z,4.40
2023-01-12T21:04:00.040Z,4.40
2023-01-12T21:06:26.841Z,4.40
2023-01-12T21:08:53.703Z,4.40
2023-01-12T21:11:20.650Z,4.30
2023-01-12T21:13:47.511Z,4.40
2023-01-12T21:16:17.854Z,4.40
2023-01-12T21:18:44.719Z,4.40
2023-01-12T21:21:11.625Z,4.40
2023-01-12T21:23:38.366Z,4.40
2023-01-12T21:26:07.742Z,4.30
2023-01-12T21:28:36.627Z,4.40
2023-01-12T21:31:03.608Z,4.30
2023-01-12T21:33:30.599Z,4.30
2023-01-12T21:35:57.801Z,4.30
2023-01-12T21:38:25.257Z,4.30
2023-01-12T21:40:52.161Z,4.30
2023-01-12T21:43:19.547Z,4.30
2023-01-12T21:45:51.267Z,4.40
2023-01-12T21:48:19.150Z,4.30
2023-01-12T21:50:45.937Z,4.30
2023-01-12T21:53:17.667Z,4.30
2023-01-12T21:55:55.516Z,4.30
2023-01-12T21:58:23.449Z,4.30
2023-01-12T22:00:50.205Z,4.30
2023-01-12T22:03:17.197Z,4.30
2023-01-12T22:05:44.433Z,4.30
2023-01-12T22:08:11.257Z,4.30
2023-01-12T22:10:38.065Z,4.20
2023-01-12T22:13:06.694Z,4.30
2023-01-12T22:15:33.624Z,4.20
2023-01-12T22:18:00.692Z,4.20
2023-01-12T22:20:30.045Z,4.30
2023-01-12T22:22:56.821Z,4.30
2023-01-12T22:25:23.677Z,4.30
2023-01-12T22:27:50.522Z,4.20
2023-01-12T22:30:19.141Z,4.20
2023-01-12T22:32:45.996Z,4.20
2023-01-12T22:35:12.764Z,4.10
2023-01-12T22:37:39.803Z,4.10
2023-01-12T22:40:08.420Z,4.00
2023-01-12T22:42:53.681Z,4.00
2023-01-12T22:45:20.483Z,3.80
2023-01-12T22:47:54.260Z,3.80
2023-01-12T22:50:21.659Z,3.80
2023-01-12T22:52:52.691Z,3.70
2023-01-12T22:55:22.976Z,3.80
2023-01-12T22:57:49.761Z,3.90
2023-01-12T23:00:18.205Z,4.00
2023-01-12T23:03:00.037Z,4.00
2023-01-12T23:05:32.109Z,4.00
2023-01-12T23:07:59.086Z,4.00
2023-01-12T23:10:26.088Z,4.00
2023-01-12T23:13:11.186Z,4.00
2023-01-12T23:15:38.889Z,4.00
2023-01-12T23:18:06.485Z,4.00
2023-01-12T23:20:35.641Z,4.10
2023-01-12T23:23:03.295Z,4.00
2023-01-12T23:25:30.896Z,4.10
2023-01-12T23:27:57.699Z,4.10
2023-01-12T23:30:24.487Z,4.10
2023-01-12T23:32:51.204Z,4.00
2023-01-12T23:35:17.920Z,4.10
2023-01-12T23:37:44.772Z,4.00
2023-01-12T23:40:11.757Z,4.00
2023-01-12T23:42:38.627Z,4.00
2023-01-12T23:45:05.674Z,4.10
2023-01-12T23:47:32.986Z,4.10
2023-01-12T23:49:59.746Z,4.10
2023-01-12T23:52:26.701Z,4.00
2023-01-12T23:54:55.714Z,3.90
2023-01-12T23:57:23.572Z,3.80
2023-01-12T23:59:50.659Z,3.70
